createdAt,value
2018-04-15T00:02:15.404Z,5.80
2018-04-15T00:04:43.940Z,4.93
2018-04-15T00:07:12.722Z,5.40
2018-04-15T00:09:42.415Z,7.97
2018-04-15T00:12:11.749Z,6.33
2018-04-15T00:14:41.293Z,6.40
2018-04-15T00:17:10.867Z,4.67
2018-04-15T00:19:43.932Z,6.17
2018-04-15T00:22:14.522Z,9.23
2018-04-15T00:24:45.425Z,6.00
2018-04-15T00:27:13.942Z,7.63
2018-04-15T00:29:45.895Z,6.10
2018-04-15T00:32:14.418Z,6.30
2018-04-15T00:34:47.929Z,6.13
2018-04-15T00:37:17.717Z,7.70
2018-04-15T00:39:51.557Z,5.70
2018-04-15T00:42:20.889Z,8.73
2018-04-15T00:45:02.107Z,9.07
2018-04-15T00:47:30.918Z,9.37
2018-04-15T00:50:00.722Z,7.13
2018-04-15T00:52:29.383Z,6.63
2018-04-15T00:54:59.664Z,9.00
2018-04-15T00:57:28.961Z,6.73
2018-04-15T01:00:02.790Z,5.80
2018-04-15T01:02:32.713Z,6.17
2018-04-15T01:05:04.515Z,6.07
2018-04-15T01:07:33.786Z,7.27
2018-04-15T01:10:07.887Z,5.40
2018-04-15T01:12:36.421Z,7.03
2018-04-15T01:15:09.509Z,7.57
2018-04-15T01:17:38.341Z,7.67
2018-04-15T01:20:12.735Z,7.20
2018-04-15T01:22:41.318Z,7.93
2018-04-15T01:25:14.431Z,5.57
2018-04-15T01:27:44.118Z,6.13
2018-04-15T01:30:17.197Z,8.57
2018-04-15T01:32:46.005Z,7.43
2018-04-15T01:35:20.252Z,6.33
2018-04-15T01:37:49.968Z,7.50
2018-04-15T01:40:21.285Z,6.27
2018-04-15T01:42:49.768Z,6.07
2018-04-15T01:45:32.121Z,5.97
2018-04-15T01:48:00.946Z,8.73
2018-04-15T01:50:29.507Z,6.53
2018-04-15T01:52:59.026Z,8.03
2018-04-15T01:55:28.812Z,7.57
2018-04-15T01:57:58.370Z,10.47
2018-04-15T02:00:30.397Z,11.13
2018-04-15T02:02:59.337Z,9.17
2018-04-15T02:05:32.584Z,7.47
2018-04-15T02:08:01.186Z,7.10
2018-04-15T02:10:33.878Z,10.70
2018-04-15T02:13:02.429Z,7.87
2018-04-15T02:15:44.329Z,7.93
2018-04-15T02:18:13.553Z,11.10
2018-04-15T02:20:42.470Z,10.27
2018-04-15T02:23:10.996Z,11.97
2018-04-15T02:25:40.811Z,12.40
2018-04-15T02:28:10.930Z,14.00
2018-04-15T02:30:42.933Z,18.17
2018-04-15T02:33:12.480Z,14.87
2018-04-15T02:35:46.334Z,16.60
2018-04-15T02:38:14.872Z,17.33
2018-04-15T02:40:47.959Z,16.67
2018-04-15T02:43:17.661Z,19.10
2018-04-15T02:45:50.646Z,20.23
2018-04-15T02:48:20.185Z,22.33
2018-04-15T02:51:01.335Z,27.63
2018-04-15T02:53:31.628Z,25.50
2018-04-15T02:56:00.179Z,28.60
2018-04-15T02:58:28.738Z,31.40
2018-04-15T03:00:58.719Z,34.17
2018-04-15T03:03:27.258Z,26.87
2018-04-15T03:06:08.798Z,25.90
2018-04-15T03:08:38.081Z,25.13
2018-04-15T03:11:08.392Z,28.17
2018-04-15T03:13:37.308Z,31.47
2018-04-15T03:16:06.239Z,23.57
2018-04-15T03:18:35.803Z,24.33
2018-04-15T03:21:09.048Z,24.87
2018-04-15T03:23:37.542Z,23.43
2018-04-15T03:26:11.253Z,27.37
2018-04-15T03:28:39.773Z,24.03
2018-04-15T03:31:21.846Z,22.40
2018-04-15T03:33:50.370Z,22.60
2018-04-15T03:36:18.879Z,25.57
2018-04-15T03:38:47.644Z,24.43
2018-04-15T03:41:18.816Z,24.90
2018-04-15T03:43:48.091Z,21.77
2018-04-15T03:46:20.437Z,26.93
2018-04-15T03:48:50.461Z,25.67
2018-04-15T03:51:24.182Z,30.33
2018-04-15T03:53:52.707Z,27.00
2018-04-15T03:56:33.612Z,27.27
2018-04-15T03:59:02.903Z,28.07
2018-04-15T04:01:32.587Z,28.77
2018-04-15T04:04:01.145Z,29.63
2018-04-15T04:06:30.824Z,30.70
2018-04-15T04:08:59.327Z,27.37
2018-04-15T04:11:32.194Z,30.90
2018-04-15T04:14:02.009Z,32.07
2018-04-15T04:16:33.053Z,36.13
2018-04-15T04:19:08.063Z,33.67
2018-04-15T04:22:52.377Z,34.50
2018-04-15T04:28:03.528Z,31.13
2018-04-15T04:30:38.196Z,32.80
2018-04-15T04:33:07.505Z,32.63
2018-04-15T04:35:45.124Z,32.67
2018-04-15T04:38:14.412Z,30.93
2018-04-15T04:40:43.365Z,30.57
2018-04-15T04:43:12.653Z,28.10
2018-04-15T04:45:46.266Z,24.00
2018-04-15T04:48:15.917Z,26.03
2018-04-15T04:50:57.698Z,21.80
2018-04-15T04:53:28.045Z,22.93
2018-04-15T04:55:57.753Z,20.00
2018-04-15T04:58:26.396Z,20.87
2018-04-15T05:00:55.250Z,24.93
2018-04-15T05:03:24.801Z,20.37
2018-04-15T05:06:05.861Z,21.60
2018-04-15T05:08:34.830Z,17.90
2018-04-15T05:11:04.118Z,17.30
2018-04-15T05:13:33.409Z,15.23
2018-04-15T05:16:06.677Z,16.37
2018-04-15T05:18:35.233Z,14.90
2018-04-15T05:21:04.257Z,12.47
2018-04-15T05:23:33.582Z,9.37
2018-04-15T05:26:06.045Z,9.77
2018-04-15T05:28:35.321Z,8.10
2018-04-15T05:31:08.624Z,8.40
2018-04-15T05:33:38.245Z,7.63
2018-04-15T05:36:20.332Z,8.53
2018-04-15T05:38:48.812Z,6.43
2018-04-15T05:41:17.983Z,6.63
2018-04-15T05:43:46.533Z,6.63
2018-04-15T05:46:16.277Z,8.00
2018-04-15T05:48:45.113Z,7.87
2018-04-15T05:51:17.671Z,5.93
2018-04-15T05:53:47.687Z,6.83
2018-04-15T05:56:20.852Z,5.20
2018-04-15T05:58:49.368Z,7.47
2018-04-15T06:01:20.971Z,6.50
2018-04-15T06:03:49.745Z,6.17
2018-04-15T06:06:24.199Z,7.73
2018-04-15T06:08:54.116Z,8.07
2018-04-15T06:11:26.501Z,6.50
2018-04-15T06:13:55.394Z,6.93
2018-04-15T06:16:36.475Z,7.10
2018-04-15T06:19:06.146Z,6.60
2018-04-15T06:21:35.772Z,7.50
2018-04-15T06:24:04.341Z,9.00
2018-04-15T06:26:32.860Z,7.23
2018-04-15T06:29:03.158Z,7.63
2018-04-15T06:31:34.183Z,6.30
2018-04-15T06:34:02.702Z,6.43
2018-04-15T06:36:44.795Z,4.47
2018-04-15T06:39:13.373Z,3.60
2018-04-15T06:41:42.721Z,4.73
2018-04-15T06:44:11.529Z,5.27
2018-04-15T06:46:41.715Z,4.07
2018-04-15T06:49:11.271Z,4.23
2018-04-15T06:51:44.458Z,4.20
2018-04-15T06:54:14.009Z,5.33
2018-04-15T06:56:46.546Z,3.60
2018-04-15T06:59:16.549Z,4.20
2018-04-15T07:01:48.865Z,4.20
2018-04-15T07:04:18.373Z,5.57
2018-04-15T07:06:52.545Z,5.17
2018-04-15T07:09:21.154Z,4.90
2018-04-15T07:12:02.159Z,5.40
2018-04-15T07:14:31.708Z,5.67
2018-04-15T07:17:00.647Z,6.30
2018-04-15T07:19:29.938Z,5.73
2018-04-15T07:22:00.499Z,5.30
2018-04-15T07:24:29.009Z,5.47
2018-04-15T07:27:01.967Z,4.83
2018-04-15T07:29:30.799Z,4.67
2018-04-15T07:32:11.762Z,3.53
2018-04-15T07:34:40.590Z,3.90
2018-04-15T07:37:10.278Z,2.87
2018-04-15T07:39:38.822Z,3.10
2018-04-15T07:42:09.644Z,3.13
2018-04-15T07:44:38.158Z,2.20
2018-04-15T07:47:14.312Z,2.93
2018-04-15T07:49:43.120Z,3.37
2018-04-15T07:52:14.637Z,2.47
2018-04-15T07:54:43.210Z,2.00
2018-04-15T07:57:16.541Z,2.77
2018-04-15T07:59:45.085Z,3.30
2018-04-15T08:02:18.115Z,2.13
2018-04-15T08:04:48.693Z,2.83
2018-04-15T08:07:21.432Z,4.00
2018-04-15T08:09:49.931Z,2.63
2018-04-15T08:12:23.041Z,2.67
2018-04-15T08:14:52.705Z,1.93
2018-04-15T08:17:25.277Z,1.97
2018-04-15T08:19:54.625Z,3.47
2018-04-15T08:22:28.135Z,2.30
2018-04-15T08:24:57.826Z,2.07
2018-04-15T08:27:28.982Z,1.80
2018-04-15T08:29:57.870Z,1.87
2018-04-15T08:32:31.871Z,1.87
2018-04-15T08:35:01.475Z,1.77
2018-04-15T08:37:34.345Z,1.93
2018-04-15T08:40:02.846Z,3.50
2018-04-15T08:42:35.985Z,1.40
2018-04-15T08:45:04.515Z,1.77
2018-04-15T08:47:37.691Z,1.33
2018-04-15T08:50:06.520Z,1.50
2018-04-15T08:52:39.174Z,1.50
2018-04-15T08:55:08.152Z,2.10
2018-04-15T08:57:50.477Z,1.67
2018-04-15T09:00:19.742Z,1.67
2018-04-15T09:02:48.336Z,2.47
2018-04-15T09:05:18.353Z,2.77
2018-04-15T09:07:48.052Z,1.40
2018-04-15T09:10:16.576Z,1.97
2018-04-15T09:12:49.738Z,1.73
2018-04-15T09:15:18.249Z,2.27
2018-04-15T09:17:52.034Z,3.03
2018-04-15T09:20:21.596Z,1.30
2018-04-15T09:22:54.481Z,4.83
2018-04-15T09:25:23.003Z,2.27
2018-04-15T09:27:57.463Z,1.97
2018-04-15T09:30:26.060Z,3.00
2018-04-15T09:32:59.286Z,4.67
2018-04-15T09:35:28.042Z,2.40
2018-04-15T09:38:02.009Z,1.73
2018-04-15T09:40:31.307Z,2.67
2018-04-15T09:43:05.411Z,2.40
2018-04-15T09:45:33.894Z,2.60
2018-04-15T09:48:15.137Z,2.17
2018-04-15T09:50:43.678Z,1.40
2018-04-15T09:53:13.225Z,1.77
2018-04-15T09:55:43.041Z,3.70
2018-04-15T09:58:12.973Z,1.70
2018-04-15T10:00:48.442Z,2.13
2018-04-15T10:03:17.761Z,4.20
2018-04-15T10:05:46.718Z,1.30
2018-04-15T10:08:16.960Z,1.57
2018-04-15T10:10:46.248Z,1.53
2018-04-15T10:13:28.067Z,1.77
2018-04-15T10:15:58.097Z,1.50
2018-04-15T10:18:26.610Z,2.67
2018-04-15T10:20:55.487Z,1.13
2018-04-15T10:23:24.505Z,2.23
2018-04-15T10:25:54.328Z,1.70
2018-04-15T10:28:25.957Z,1.73
2018-04-15T10:30:55.141Z,1.53
2018-04-15T10:33:36.733Z,3.27
2018-04-15T10:36:05.253Z,2.47
2018-04-15T10:38:33.782Z,1.50
2018-04-15T10:41:03.401Z,1.40
2018-04-15T10:43:33.414Z,1.47
2018-04-15T10:46:03.145Z,1.37
2018-04-15T10:48:36.165Z,1.50
2018-04-15T10:51:05.528Z,1.53
2018-04-15T10:53:36.362Z,3.43
2018-04-15T10:56:04.954Z,2.50
2018-04-15T10:58:37.566Z,2.67
2018-04-15T11:01:07.275Z,1.30
2018-04-15T11:03:40.996Z,1.33
2018-04-15T11:06:09.545Z,5.60
2018-04-15T11:08:44.747Z,2.33
2018-04-15T11:11:13.295Z,1.87
2018-04-15T11:13:45.744Z,2.63
2018-04-15T11:16:14.711Z,1.10
2018-04-15T11:18:48.305Z,1.53
2018-04-15T11:21:17.126Z,1.63
2018-04-15T11:23:59.251Z,1.73
2018-04-15T11:26:29.712Z,2.17
2018-04-15T11:28:58.277Z,1.87
2018-04-15T11:31:27.979Z,1.23
2018-04-15T11:33:56.587Z,1.60
2018-04-15T11:36:25.124Z,2.43
2018-04-15T11:38:58.480Z,2.23
2018-04-15T11:41:27.757Z,2.83
2018-04-15T11:44:01.242Z,2.73
2018-04-15T11:46:30.780Z,3.83
2018-04-15T11:49:11.838Z,1.57
2018-04-15T11:51:40.668Z,1.00
2018-04-15T11:54:09.199Z,4.10
2018-04-15T11:56:38.500Z,2.00
2018-04-15T11:59:09.554Z,1.63
2018-04-15T12:01:38.841Z,3.30
2018-04-15T12:04:12.077Z,1.27
2018-04-15T12:06:41.253Z,4.43
2018-04-15T12:09:22.233Z,1.60
2018-04-15T12:11:50.860Z,4.90
2018-04-15T12:14:20.411Z,3.53
2018-04-15T12:16:49.009Z,1.57
2018-04-15T12:19:18.249Z,2.60
2018-04-15T12:21:47.140Z,3.17
2018-04-15T12:24:21.245Z,2.47
2018-04-15T12:26:50.553Z,3.07
2018-04-15T12:29:23.680Z,2.47
2018-04-15T12:31:52.444Z,1.70
2018-04-15T12:34:26.168Z,3.97
2018-04-15T12:36:54.925Z,2.20
2018-04-15T12:39:36.650Z,2.23
2018-04-15T12:42:06.231Z,1.13
2018-04-15T12:44:35.551Z,2.07
2018-04-15T12:47:04.890Z,1.20
2018-04-15T12:49:33.455Z,3.70
2018-04-15T12:52:01.988Z,3.13
2018-04-15T12:54:35.088Z,2.87
2018-04-15T12:57:03.605Z,2.87
2018-04-15T12:59:37.225Z,1.97
2018-04-15T13:02:06.026Z,4.50
2018-04-15T13:04:38.975Z,4.50
2018-04-15T13:07:07.870Z,2.50
2018-04-15T13:09:40.962Z,2.07
2018-04-15T13:12:09.502Z,1.63
2018-04-15T13:14:43.293Z,1.40
2018-04-15T13:17:13.291Z,1.70
2018-04-15T13:19:46.563Z,2.43
2018-04-15T13:22:15.110Z,2.67
2018-04-15T13:24:47.726Z,1.30
2018-04-15T13:27:16.256Z,2.03
2018-04-15T13:29:58.507Z,7.90
2018-04-15T13:32:27.309Z,4.03
2018-04-15T13:34:55.861Z,3.60
2018-04-15T13:37:24.410Z,4.03
2018-04-15T13:39:54.974Z,1.50
2018-04-15T13:42:23.494Z,2.83
2018-04-15T13:44:57.309Z,4.67
2018-04-15T13:47:26.877Z,1.10
2018-04-15T13:50:07.826Z,2.27
2018-04-15T13:52:36.661Z,3.67
2018-04-15T13:55:06.013Z,2.13
2018-04-15T13:57:35.327Z,2.70
2018-04-15T14:00:05.455Z,1.87
2018-04-15T14:02:34.062Z,3.37
2018-04-15T14:05:16.213Z,1.90
2018-04-15T14:07:45.140Z,2.07
2018-04-15T14:10:13.692Z,4.47
2018-04-15T14:12:43.005Z,1.20
2018-04-15T14:15:13.509Z,2.23
2018-04-15T14:17:42.846Z,3.60
2018-04-15T14:20:15.320Z,3.23
2018-04-15T14:22:44.696Z,1.93
2018-04-15T14:25:17.187Z,4.30
2018-04-15T14:27:46.460Z,1.73
2018-04-15T14:30:20.417Z,1.43
2018-04-15T14:32:50.839Z,1.60
2018-04-15T14:35:22.925Z,1.70
2018-04-15T14:37:51.837Z,2.67
2018-04-15T14:40:23.933Z,1.97
2018-04-15T14:42:53.250Z,3.83
2018-04-15T14:45:25.810Z,2.30
2018-04-15T14:47:54.650Z,1.73
2018-04-15T14:50:36.003Z,2.33
2018-04-15T14:53:04.926Z,3.37
2018-04-15T14:55:34.265Z,2.20
2018-04-15T14:58:03.173Z,2.50
2018-04-15T15:00:32.187Z,2.13
2018-04-15T15:03:01.497Z,1.70
2018-04-15T15:05:33.978Z,2.50
2018-04-15T15:08:04.064Z,4.60
2018-04-15T15:10:36.889Z,2.30
2018-04-15T15:13:06.430Z,2.83
2018-04-15T15:15:38.071Z,1.70
2018-04-15T15:18:08.093Z,2.70
2018-04-15T15:20:40.420Z,3.27
2018-04-15T15:23:09.393Z,1.77
2018-04-15T15:25:51.825Z,2.17
2018-04-15T15:28:21.945Z,3.10
2018-04-15T15:33:14.033Z,3.60
2018-04-15T15:35:56.493Z,2.27
2018-04-15T15:38:25.017Z,2.60
2018-04-15T15:40:55.602Z,1.60
2018-04-15T15:43:24.140Z,1.97
2018-04-15T15:45:53.718Z,2.70
2018-04-15T15:48:23.484Z,1.70
2018-04-15T15:50:57.112Z,3.73
2018-04-15T15:53:26.409Z,2.33
2018-04-15T15:55:59.041Z,3.77
2018-04-15T15:58:29.086Z,2.40
2018-04-15T16:01:00.620Z,2.37
2018-04-15T16:03:29.609Z,3.33
2018-04-15T16:06:03.070Z,1.57
2018-04-15T16:08:31.679Z,3.80
2018-04-15T16:11:07.905Z,3.23
2018-04-15T16:13:37.448Z,2.50
2018-04-15T16:16:18.861Z,3.20
2018-04-15T16:18:48.500Z,2.13
2018-04-15T16:21:18.142Z,2.40
2018-04-15T16:23:46.712Z,4.00
2018-04-15T16:26:17.229Z,2.80
2018-04-15T16:28:45.817Z,2.33
2018-04-15T16:31:16.555Z,2.80
2018-04-15T16:33:46.589Z,1.80
2018-04-15T16:36:18.357Z,2.27
2018-04-15T16:38:46.952Z,2.13
2018-04-15T16:41:28.445Z,4.00
2018-04-15T16:43:58.504Z,3.57
2018-04-15T16:46:28.594Z,2.77
2018-04-15T16:48:57.528Z,2.40
2018-04-15T16:51:26.860Z,3.67
2018-04-15T16:53:55.595Z,6.90
2018-04-15T16:56:26.443Z,5.70
2018-04-15T16:58:55.009Z,7.63
2018-04-15T17:01:28.172Z,4.67
2018-04-15T17:03:57.693Z,3.63
2018-04-15T17:06:30.471Z,4.40
2018-04-15T17:08:59.251Z,3.23
2018-04-15T17:11:40.494Z,3.50
2018-04-15T17:14:09.306Z,2.00
2018-04-15T17:16:38.614Z,2.00
2018-04-15T17:19:08.161Z,2.20
2018-04-15T17:21:38.797Z,1.90
2018-04-15T17:24:08.553Z,1.60
2018-04-15T17:26:40.465Z,3.50
2018-04-15T17:29:09.314Z,4.47
2018-04-15T17:31:41.225Z,1.90
2018-04-15T17:34:10.574Z,2.50
2018-04-15T17:36:52.160Z,1.83
2018-04-15T17:52:33.208Z,1.70
2018-04-15T17:55:01.749Z,1.63
2018-04-15T17:57:30.513Z,1.73
2018-04-15T17:59:59.075Z,1.77
2018-04-15T18:02:28.797Z,1.83
2018-04-15T18:04:58.701Z,2.47
2018-04-15T18:07:28.417Z,2.50
2018-04-15T18:23:19.112Z,3.40
2018-04-15T18:25:48.690Z,2.37
2018-04-15T18:28:18.172Z,3.03
2018-04-15T18:30:49.179Z,4.70
2018-04-15T18:33:19.275Z,4.53
2018-04-15T18:35:48.687Z,3.80
2018-04-15T18:38:18.284Z,4.37
2018-04-15T18:40:47.321Z,2.90
2018-04-15T18:43:16.261Z,5.10
2018-04-15T18:45:44.866Z,4.03
2018-04-15T18:48:17.869Z,6.03
2018-04-15T18:50:46.775Z,5.63
2018-04-15T18:53:19.998Z,2.80
2018-04-15T18:55:48.536Z,2.83
2018-04-15T18:58:21.142Z,3.73
2018-04-15T19:00:50.773Z,3.87
2018-04-15T19:03:24.736Z,3.17
2018-04-15T19:05:54.193Z,4.77
2018-04-15T19:08:27.049Z,4.73
2018-04-15T19:10:56.802Z,6.40
2018-04-15T19:13:28.921Z,7.30
2018-04-15T19:15:59.071Z,7.80
2018-04-15T19:18:30.098Z,8.33
2018-04-15T19:20:59.374Z,9.50
2018-04-15T19:23:32.685Z,9.70
2018-04-15T19:26:02.552Z,7.83
2018-04-15T19:28:34.802Z,7.40
2018-04-15T19:31:03.320Z,9.60
2018-04-15T19:33:37.114Z,13.17
2018-04-15T19:36:06.464Z,9.20
2018-04-15T19:38:47.665Z,7.03
2018-04-15T19:41:16.773Z,7.40
2018-04-15T19:43:46.084Z,9.03
2018-04-15T19:46:14.703Z,4.73
2018-04-15T19:48:43.668Z,6.93
2018-04-15T19:51:13.461Z,7.57
2018-04-15T19:53:47.424Z,7.17
2018-04-15T19:56:16.804Z,8.70
2018-04-15T19:58:49.937Z,7.77
2018-04-15T20:01:18.481Z,6.53
2018-04-15T20:03:50.428Z,8.47
2018-04-15T20:06:19.760Z,14.07
2018-04-15T20:08:52.542Z,14.97
2018-04-15T20:11:21.453Z,17.50
2018-04-15T20:13:55.039Z,11.97
2018-04-15T20:16:23.598Z,8.77
2018-04-15T20:18:59.675Z,8.50
2018-04-15T20:21:28.286Z,11.43
2018-04-15T20:24:00.339Z,7.13
2018-04-15T20:26:30.029Z,9.27
2018-04-15T20:29:02.638Z,11.30
2018-04-15T20:31:32.369Z,5.73
2018-04-15T20:34:06.214Z,9.30
2018-04-15T20:36:34.871Z,15.70
2018-04-15T20:39:11.069Z,13.60
2018-04-15T20:41:39.663Z,13.50
2018-04-15T20:44:12.027Z,15.13
2018-04-15T20:46:41.857Z,12.50
2018-04-15T20:49:12.679Z,11.43
2018-04-15T20:51:42.246Z,6.87
2018-04-15T20:54:18.371Z,6.50
2018-04-15T20:56:47.203Z,7.50
2018-04-15T20:59:21.444Z,7.07
2018-04-15T21:01:50.839Z,6.70
2018-04-15T21:04:20.767Z,6.20
2018-04-15T21:06:58.751Z,5.53
2018-04-15T21:09:28.486Z,5.93
2018-04-15T21:11:57.952Z,5.63
2018-04-15T21:14:26.851Z,6.77
2018-04-15T21:16:56.555Z,5.47
2018-04-15T21:19:26.632Z,6.80
2018-04-15T21:21:55.655Z,6.13
2018-04-15T21:24:28.043Z,8.67
2018-04-15T21:26:57.927Z,6.87
2018-04-15T21:29:38.753Z,4.27
2018-04-15T21:32:08.686Z,5.90
2018-04-15T21:34:37.246Z,4.27
2018-04-15T21:37:05.766Z,5.87
2018-04-15T21:39:34.690Z,3.60
2018-04-15T21:42:03.661Z,6.27
2018-04-15T21:44:37.790Z,4.10
2018-04-15T21:47:06.590Z,5.63
2018-04-15T21:49:40.072Z,4.83
2018-04-15T21:52:08.575Z,5.37
2018-04-15T21:54:41.113Z,4.57
2018-04-15T21:57:09.685Z,5.63
2018-04-15T21:59:42.829Z,3.87
2018-04-15T22:02:15.379Z,4.60
2018-04-15T22:04:45.666Z,3.40
2018-04-15T22:07:14.366Z,4.10
2018-04-15T22:09:57.681Z,5.03
2018-04-15T22:12:26.197Z,6.23
2018-04-15T22:14:56.765Z,5.23
2018-04-15T22:17:26.077Z,7.13
2018-04-15T22:19:56.005Z,4.83
2018-04-15T22:22:25.623Z,5.20
2018-04-15T22:24:56.573Z,6.23
2018-04-15T22:27:26.050Z,4.77
2018-04-15T22:29:58.847Z,4.47
2018-04-15T22:32:29.605Z,3.43
2018-04-15T22:35:00.181Z,4.20
2018-04-15T22:37:28.672Z,8.37
2018-04-15T22:40:01.500Z,4.10
2018-04-15T22:42:30.471Z,3.90
2018-04-15T22:45:03.308Z,5.23
2018-04-15T22:47:31.917Z,6.20
2018-04-15T22:50:06.351Z,4.73
2018-04-15T22:52:35.046Z,6.87
2018-04-15T22:55:03.977Z,4.97
2018-04-15T22:57:34.134Z,6.70
2018-04-15T23:00:04.023Z,7.50
2018-04-15T23:02:33.716Z,5.77
2018-04-15T23:05:03.886Z,5.70
2018-04-15T23:07:33.530Z,16.17
2018-04-15T23:10:03.056Z,7.83
2018-04-15T23:12:32.371Z,7.63
2018-04-15T23:15:01.091Z,9.53
2018-04-15T23:17:29.597Z,7.07
2018-04-15T23:19:59.831Z,6.77
2018-04-15T23:22:28.364Z,7.50
2018-04-15T23:24:56.953Z,8.80
2018-04-15T23:27:27.144Z,5.80
2018-04-15T23:29:55.655Z,6.17
2018-04-15T23:32:27.534Z,9.23
2018-04-15T23:34:56.537Z,6.97
2018-04-15T23:37:37.380Z,4.63
2018-04-15T23:40:06.300Z,5.07
2018-04-15T23:42:34.842Z,4.33
2018-04-15T23:45:03.334Z,4.73
2018-04-15T23:47:33.345Z,5.30
2018-04-15T23:50:01.897Z,4.43
2018-04-15T23:52:36.254Z,5.27
2018-04-15T23:55:05.080Z,4.43
2018-04-15T23:57:37.130Z,5.33
